createdAt,value
2019-02-08T00:02:25.507Z,68.25
2019-02-08T00:04:56.110Z,70.28
2019-02-08T00:07:26.466Z,69.27
2019-02-08T00:09:56.797Z,67.10
2019-02-08T00:12:27.901Z,67.00
2019-02-08T00:14:58.253Z,67.00
2019-02-08T00:17:28.502Z,68.52
2019-02-08T00:19:58.961Z,64.72
2019-02-08T00:22:29.292Z,63.73
2019-02-08T00:24:59.627Z,64.37
2019-02-08T00:27:29.905Z,63.78
2019-02-08T00:30:00.392Z,64.12
2019-02-08T00:32:30.867Z,62.35
2019-02-08T00:35:01.089Z,62.05
2019-02-08T00:37:31.493Z,62.25
2019-02-08T00:40:02.373Z,61.23
2019-02-08T00:42:32.691Z,60.30
2019-02-08T00:45:02.991Z,61.10
2019-02-08T00:47:34.500Z,61.13
2019-02-08T00:50:05.977Z,58.92
2019-02-08T00:52:36.187Z,60.03
2019-02-08T00:55:07.054Z,58.13
2019-02-08T00:57:37.349Z,57.35
2019-02-08T01:00:10.420Z,56.65
2019-02-08T01:02:40.985Z,56.18
2019-02-08T01:05:13.278Z,57.17
2019-02-08T01:07:43.549Z,55.38
2019-02-08T01:10:41.986Z,54.65
2019-02-08T01:13:12.683Z,54.90
2019-02-08T01:15:43.165Z,55.15
2019-02-08T01:18:14.427Z,53.42
2019-02-08T01:20:45.996Z,53.50
2019-02-08T01:23:17.543Z,53.30
2019-02-08T01:25:47.847Z,53.17
2019-02-08T01:28:18.105Z,52.30
2019-02-08T01:30:48.558Z,53.05
2019-02-08T01:33:19.914Z,50.92
2019-02-08T01:35:50.159Z,50.08
2019-02-08T01:38:20.425Z,52.05
2019-02-08T01:40:52.430Z,50.35
2019-02-08T01:43:22.704Z,49.77
2019-02-08T01:45:53.053Z,49.42
2019-02-08T01:48:23.316Z,49.08
2019-02-08T01:50:53.663Z,48.95
2019-02-08T01:53:24.431Z,46.37
2019-02-08T01:55:54.790Z,48.45
2019-02-08T01:58:25.024Z,47.62
2019-02-08T02:00:57.974Z,47.95
2019-02-08T02:03:29.926Z,46.35
2019-02-08T02:06:00.680Z,46.73
2019-02-08T02:08:31.006Z,44.60
2019-02-08T02:11:01.232Z,45.67
2019-02-08T02:13:31.547Z,46.95
2019-02-08T02:16:04.137Z,44.35
2019-02-08T02:18:34.651Z,45.08
2019-02-08T02:21:06.640Z,44.50
2019-02-08T02:23:36.899Z,44.08
2019-02-08T02:26:07.175Z,42.15
2019-02-08T02:28:37.559Z,42.70
2019-02-08T02:31:07.827Z,43.02
2019-02-08T02:33:38.180Z,40.05
2019-02-08T02:36:08.480Z,41.13
2019-02-08T02:38:38.882Z,40.88
2019-02-08T02:41:09.281Z,40.73
2019-02-08T02:43:39.681Z,41.65
2019-02-08T02:46:09.950Z,41.88
2019-02-08T02:48:40.300Z,39.58
2019-02-08T02:51:10.568Z,40.55
2019-02-08T02:53:40.907Z,39.65
2019-02-08T02:56:11.236Z,39.08
2019-02-08T02:58:41.742Z,39.45
2019-02-08T03:01:11.995Z,38.30
2019-02-08T03:03:42.511Z,38.13
2019-02-08T03:06:12.769Z,37.83
2019-02-08T03:08:43.058Z,38.13
2019-02-08T03:11:13.305Z,37.28
2019-02-08T03:13:43.594Z,37.10
2019-02-08T03:16:13.893Z,37.13
2019-02-08T03:18:44.245Z,35.85
2019-02-08T03:21:18.154Z,36.90
2019-02-08T03:23:48.556Z,37.17
2019-02-08T03:26:18.937Z,35.45
2019-02-08T03:28:49.360Z,34.67
2019-02-08T03:31:23.742Z,35.35
2019-02-08T03:33:54.129Z,34.65
2019-02-08T03:36:24.351Z,34.67
2019-02-08T03:38:54.643Z,34.03
2019-02-08T03:41:27.767Z,33.95
2019-02-08T03:43:58.054Z,33.35
2019-02-08T03:46:28.523Z,32.75
2019-02-08T03:48:58.820Z,33.95
2019-02-08T03:51:29.135Z,32.85
2019-02-08T03:53:59.376Z,31.48
2019-02-08T03:56:29.958Z,32.70
2019-02-08T03:59:00.301Z,31.37
2019-02-08T04:01:30.730Z,31.65
2019-02-08T04:04:15.720Z,30.52
2019-02-08T04:06:46.021Z,30.32
2019-02-08T04:09:16.396Z,29.23
2019-02-08T04:11:46.743Z,30.32
2019-02-08T04:14:17.011Z,29.63
2019-02-08T04:16:47.254Z,29.98
2019-02-08T04:19:17.585Z,30.25
2019-02-08T04:21:47.885Z,28.50
2019-02-08T04:24:18.325Z,28.95
2019-02-08T04:26:48.623Z,29.27
2019-02-08T04:29:18.908Z,28.87
2019-02-08T04:31:49.196Z,28.92
2019-02-08T04:34:19.537Z,27.25
2019-02-08T04:36:49.894Z,28.42
2019-02-08T04:39:20.131Z,27.10
2019-02-08T04:41:50.439Z,27.90
2019-02-08T04:44:20.745Z,27.22
2019-02-08T04:46:51.034Z,26.75
2019-02-08T04:49:21.345Z,27.22
2019-02-08T04:51:51.650Z,26.42
2019-02-08T04:54:21.938Z,26.82
2019-02-08T04:56:52.324Z,26.82
2019-02-08T04:59:22.565Z,26.37
2019-02-08T05:01:52.866Z,25.20
2019-02-08T05:04:24.745Z,26.02
2019-02-08T05:06:55.087Z,25.45
2019-02-08T05:09:25.414Z,24.70
2019-02-08T05:11:55.793Z,24.77
2019-02-08T05:14:26.048Z,24.05
2019-02-08T05:16:56.368Z,24.10
2019-02-08T05:19:29.530Z,23.60
2019-02-08T05:21:59.910Z,23.22
2019-02-08T05:24:30.204Z,23.98
2019-02-08T05:27:00.504Z,23.30
2019-02-08T05:29:30.764Z,23.65
2019-02-08T05:32:04.778Z,22.62
2019-02-08T05:34:35.048Z,23.35
2019-02-08T05:37:05.698Z,25.08
2019-02-08T05:39:37.448Z,23.85
2019-02-08T05:42:07.851Z,22.42
2019-02-08T05:44:38.449Z,22.10
2019-02-08T05:47:08.853Z,22.42
2019-02-08T05:49:39.320Z,22.32
2019-02-08T05:52:09.625Z,22.30
2019-02-08T05:54:39.978Z,21.60
2019-02-08T05:57:10.570Z,22.73
2019-02-08T05:59:40.813Z,21.80
2019-02-08T06:02:11.173Z,22.52
2019-02-08T06:04:40.392Z,22.65
2019-02-08T06:07:09.771Z,23.27
2019-02-08T06:09:40.106Z,22.37
2019-02-08T06:12:10.407Z,22.82
2019-02-08T06:14:40.736Z,22.45
2019-02-08T06:17:11.118Z,24.25
2019-02-08T06:19:41.409Z,32.25
2019-02-08T06:22:11.677Z,30.88
2019-02-08T06:24:41.922Z,29.05
2019-02-08T06:27:12.262Z,38.42
2019-02-08T06:29:42.608Z,36.77
2019-02-08T06:32:12.947Z,34.95
2019-02-08T06:34:43.211Z,35.08
2019-02-08T06:37:13.500Z,43.80
2019-02-08T06:39:43.846Z,44.53
2019-02-08T06:42:14.166Z,69.90
2019-02-08T06:44:45.511Z,59.13
2019-02-08T06:47:15.767Z,59.35
2019-02-08T06:49:46.150Z,65.15
2019-02-08T06:52:16.471Z,68.80
2019-02-08T06:54:46.694Z,60.50
2019-02-08T06:57:39.031Z,58.92
2019-02-08T07:00:37.654Z,58.23
2019-02-08T07:03:32.846Z,56.50
2019-02-08T07:06:10.433Z,56.90
2019-02-08T07:09:05.897Z,54.88
2019-02-08T07:12:01.129Z,54.95
2019-02-08T07:14:50.342Z,56.02
2019-02-08T07:17:39.660Z,54.42
2019-02-08T07:20:29.848Z,57.43
2019-02-08T07:23:10.744Z,75.75
2019-02-08T07:26:15.103Z,41.55
2019-02-08T07:29:07.507Z,43.08
2019-02-08T07:32:02.648Z,43.90
2019-02-08T07:35:04.600Z,46.37
2019-02-08T07:38:00.292Z,49.35
2019-02-08T07:40:51.300Z,50.63
2019-02-08T07:43:47.729Z,50.83
2019-02-08T07:46:28.474Z,49.42
2019-02-08T07:49:12.712Z,49.27
2019-02-08T07:52:20.130Z,50.65
2019-02-08T07:55:05.868Z,50.52
2019-02-08T07:57:53.648Z,50.58
2019-02-08T08:00:41.419Z,51.42
2019-02-08T08:03:27.455Z,49.85
2019-02-08T08:06:21.096Z,51.02
2019-02-08T08:09:09.419Z,50.50
2019-02-08T08:11:57.385Z,47.88
2019-02-08T08:14:55.593Z,51.18
2019-02-08T08:17:54.091Z,47.88
2019-02-08T08:20:50.154Z,49.40
2019-02-08T08:23:45.032Z,49.77
2019-02-08T08:26:49.680Z,48.20
2019-02-08T08:29:42.535Z,47.62
2019-02-08T08:32:36.220Z,48.05
2019-02-08T08:35:57.439Z,46.28
2019-02-08T08:39:27.532Z,48.05
2019-02-08T08:42:28.610Z,47.53
2019-02-08T08:45:35.778Z,47.25
2019-02-08T08:48:45.400Z,46.30
2019-02-08T08:51:52.550Z,45.15
2019-02-08T08:55:08.888Z,46.28
2019-02-08T08:58:15.025Z,45.67
2019-02-08T09:01:41.310Z,45.40
2019-02-08T09:05:08.211Z,44.80
2019-02-08T09:08:19.802Z,45.95
2019-02-08T09:11:33.957Z,44.58
2019-02-08T09:14:44.277Z,43.42
2019-02-08T09:18:10.987Z,43.98
2019-02-08T09:21:18.423Z,40.78
2019-02-08T09:24:45.250Z,43.23
2019-02-08T09:27:48.955Z,41.28
2019-02-08T09:31:05.646Z,41.40
2019-02-08T09:34:22.299Z,36.93
2019-02-08T09:37:48.421Z,37.15
2019-02-08T09:40:49.040Z,36.20
2019-02-08T09:43:56.122Z,37.98
2019-02-08T09:47:11.934Z,37.50
2019-02-08T09:50:20.625Z,37.13
2019-02-08T09:53:05.807Z,34.50
2019-02-08T09:56:22.366Z,35.80
2019-02-08T09:59:23.257Z,34.60
2019-02-08T10:02:42.971Z,34.08
2019-02-08T10:05:37.312Z,33.48
2019-02-08T10:08:51.846Z,32.20
2019-02-08T10:11:59.116Z,31.23
2019-02-08T10:15:28.526Z,29.30
2019-02-08T10:18:30.866Z,30.68
2019-02-08T10:21:29.972Z,30.32
2019-02-08T10:24:40.494Z,28.73
2019-02-08T10:27:54.483Z,28.42
2019-02-08T10:31:11.007Z,26.25
2019-02-08T10:34:16.578Z,26.73
2019-02-08T10:37:39.665Z,26.65
2019-02-08T10:41:03.326Z,24.18
2019-02-08T10:44:30.542Z,24.25
2019-02-08T10:47:59.911Z,23.80
2019-02-08T10:51:06.336Z,23.15
2019-02-08T10:54:18.175Z,22.85
2019-02-08T10:57:35.802Z,21.73
2019-02-08T11:01:01.733Z,21.17
2019-02-08T11:04:31.791Z,21.80
2019-02-08T11:07:43.958Z,19.85
2019-02-08T11:11:10.781Z,19.50
2019-02-08T11:14:21.242Z,19.75
2019-02-08T11:17:29.999Z,19.32
2019-02-08T11:20:00.664Z,19.82
2019-02-08T11:22:31.154Z,18.57
2019-02-08T11:25:01.634Z,18.17
2019-02-08T11:27:32.623Z,18.90
2019-02-08T11:30:03.236Z,18.00
2019-02-08T11:32:43.402Z,17.95
2019-02-08T11:35:07.682Z,17.45
2019-02-08T11:37:38.756Z,17.32
2019-02-08T11:40:17.183Z,16.80
2019-02-08T11:42:47.726Z,16.93
2019-02-08T11:45:19.339Z,16.77
2019-02-08T11:47:49.801Z,16.55
2019-02-08T11:50:21.442Z,17.48
2019-02-08T11:52:51.954Z,15.55
2019-02-08T11:55:22.509Z,15.78
2019-02-08T11:57:53.256Z,15.50
2019-02-08T12:00:32.969Z,15.18
2019-02-08T12:03:04.709Z,15.40
2019-02-08T12:05:35.391Z,15.32
2019-02-08T12:08:06.042Z,14.28
2019-02-08T12:10:36.584Z,14.65
2019-02-08T12:13:07.391Z,13.90
2019-02-08T12:15:38.273Z,14.40
2019-02-08T12:18:09.343Z,14.13
2019-02-08T12:20:40.173Z,15.00
2019-02-08T12:23:11.209Z,12.98
2019-02-08T12:25:41.906Z,13.83
2019-02-08T12:28:12.646Z,13.55
2019-02-08T12:30:43.619Z,13.50
2019-02-08T12:33:14.153Z,12.00
2019-02-08T12:35:44.625Z,13.03
2019-02-08T12:38:18.672Z,12.40
2019-02-08T12:40:49.218Z,12.80
2019-02-08T12:43:19.869Z,12.15
2019-02-08T12:45:53.158Z,13.08
2019-02-08T12:48:24.207Z,12.70
2019-02-08T12:50:55.644Z,12.33
2019-02-08T12:53:26.322Z,11.75
2019-02-08T12:55:57.399Z,12.10
2019-02-08T12:58:28.100Z,12.20
2019-02-08T13:00:58.688Z,12.07
2019-02-08T13:03:30.479Z,12.13
2019-02-08T13:06:02.573Z,10.93
2019-02-08T13:08:33.133Z,11.60
2019-02-08T13:11:03.992Z,11.08
2019-02-08T13:13:34.534Z,11.22
2019-02-08T13:16:06.903Z,10.65
2019-02-08T13:18:38.116Z,10.23
2019-02-08T13:21:08.927Z,11.48
2019-02-08T13:23:43.315Z,10.05
2019-02-08T13:26:14.066Z,10.50
2019-02-08T13:28:44.511Z,10.20
2019-02-08T13:31:15.024Z,10.90
2019-02-08T13:33:45.402Z,10.23
2019-02-08T13:36:16.462Z,9.90
2019-02-08T13:38:49.420Z,10.63
2019-02-08T13:41:19.923Z,10.00
2019-02-08T13:43:53.350Z,9.83
2019-02-08T13:46:23.986Z,10.53
2019-02-08T13:48:54.418Z,9.50
2019-02-08T13:51:24.962Z,10.43
2019-02-08T13:53:55.555Z,10.00
2019-02-08T13:56:26.289Z,10.53
2019-02-08T13:58:56.821Z,10.00
2019-02-08T14:01:27.749Z,9.88
2019-02-08T14:03:58.787Z,9.30
2019-02-08T14:06:30.749Z,9.40
2019-02-08T14:09:01.111Z,8.78
2019-02-08T14:11:33.572Z,9.95
2019-02-08T14:14:04.259Z,9.30
2019-02-08T14:16:34.960Z,9.08
2019-02-08T14:19:05.406Z,9.73
2019-02-08T14:21:36.201Z,9.28
2019-02-08T14:24:06.732Z,9.43
2019-02-08T14:26:38.879Z,9.10
2019-02-08T14:29:09.805Z,8.83
2019-02-08T14:31:40.256Z,9.43
2019-02-08T14:34:15.137Z,9.18
2019-02-08T14:36:45.568Z,9.50
2019-02-08T14:39:15.918Z,8.55
2019-02-08T14:41:47.664Z,8.40
2019-02-08T14:44:18.027Z,8.28
2019-02-08T14:46:48.405Z,8.18
2019-02-08T14:49:19.454Z,8.13
2019-02-08T14:51:49.741Z,8.15
2019-02-08T14:54:20.430Z,8.25
2019-02-08T14:56:50.897Z,7.30
2019-02-08T14:59:24.370Z,8.45
2019-02-08T15:02:01.454Z,8.05
2019-02-08T15:04:32.720Z,7.72
2019-02-08T15:07:03.796Z,8.48
2019-02-08T15:09:34.269Z,7.33
2019-02-08T15:12:04.843Z,8.03
2019-02-08T15:14:36.211Z,7.55
2019-02-08T15:17:12.047Z,7.95
2019-02-08T15:19:42.379Z,8.05
2019-02-08T15:22:12.778Z,6.70
2019-02-08T15:24:43.095Z,7.87
2019-02-08T15:27:13.620Z,7.87
2019-02-08T15:29:43.839Z,8.15
2019-02-08T15:32:14.352Z,7.92
2019-02-08T15:34:46.747Z,7.75
2019-02-08T15:37:18.813Z,7.67
2019-02-08T15:39:49.096Z,6.78
2019-02-08T15:42:19.544Z,7.67
2019-02-08T15:44:50.240Z,7.33
2019-02-08T15:47:20.668Z,7.92
2019-02-08T15:49:51.260Z,7.45
2019-02-08T15:52:21.532Z,8.03
2019-02-08T15:54:51.877Z,7.47
2019-02-08T15:57:22.175Z,7.90
2019-02-08T15:59:52.603Z,7.72
2019-02-08T16:02:24.549Z,7.25
2019-02-08T16:04:54.997Z,6.87
2019-02-08T16:07:25.436Z,7.60
2019-02-08T16:09:55.964Z,7.67
2019-02-08T16:12:26.352Z,7.55
2019-02-08T16:14:56.670Z,7.30
2019-02-08T16:17:26.992Z,7.75
2019-02-08T16:19:57.456Z,7.70
2019-02-08T16:22:27.784Z,7.70
2019-02-08T16:24:58.091Z,7.72
2019-02-08T16:27:28.447Z,7.80
2019-02-08T16:29:59.873Z,8.13
2019-02-08T16:32:37.269Z,8.25
2019-02-08T16:35:08.607Z,7.40
2019-02-08T16:37:38.908Z,8.35
2019-02-08T16:40:11.850Z,8.20
2019-02-08T16:42:42.203Z,9.08
2019-02-08T16:45:15.912Z,9.48
2019-02-08T16:47:46.272Z,10.58
2019-02-08T16:50:20.432Z,9.75
2019-02-08T16:52:50.825Z,10.48
2019-02-08T16:55:21.556Z,9.93
2019-02-08T16:57:52.781Z,9.35
2019-02-08T17:00:30.731Z,9.08
2019-02-08T17:03:02.878Z,9.03
2019-02-08T17:05:33.919Z,8.35
2019-02-08T17:08:04.452Z,8.73
2019-02-08T17:10:35.151Z,8.93
2019-02-08T17:13:07.245Z,8.73
2019-02-08T17:15:37.652Z,9.03
2019-02-08T17:18:08.246Z,9.35
2019-02-08T17:20:40.588Z,8.50
2019-02-08T17:23:11.366Z,7.92
2019-02-08T17:25:43.030Z,8.45
2019-02-08T17:28:13.414Z,8.95
2019-02-08T17:30:43.713Z,8.33
2019-02-08T17:33:14.076Z,8.75
2019-02-08T17:35:44.527Z,8.20
2019-02-08T17:38:17.231Z,8.98
2019-02-08T17:40:47.944Z,8.70
2019-02-08T17:43:18.302Z,8.28
2019-02-08T17:45:48.624Z,8.95
2019-02-08T17:48:18.823Z,8.18
2019-02-08T17:50:49.171Z,7.65
2019-02-08T17:53:20.536Z,8.88
2019-02-08T17:55:50.897Z,8.38
2019-02-08T17:58:21.269Z,8.48
2019-02-08T18:00:56.715Z,8.58
2019-02-08T18:03:27.016Z,8.43
2019-02-08T18:05:57.405Z,9.00
2019-02-08T18:08:27.702Z,9.10
2019-02-08T18:10:58.267Z,8.33
2019-02-08T18:13:28.691Z,9.78
2019-02-08T18:15:59.027Z,8.98
2019-02-08T18:18:29.428Z,8.88
2019-02-08T18:21:02.678Z,9.20
2019-02-08T18:23:33.012Z,8.85
2019-02-08T18:26:03.354Z,9.05
2019-02-08T18:28:33.629Z,8.85
2019-02-08T18:31:04.022Z,9.18
2019-02-08T18:33:34.414Z,9.38
2019-02-08T18:36:04.867Z,9.60
2019-02-08T18:38:35.186Z,8.58
2019-02-08T18:41:05.558Z,8.53
2019-02-08T18:43:36.265Z,8.63
2019-02-08T18:46:06.585Z,8.30
2019-02-08T18:48:37.004Z,8.98
2019-02-08T18:51:07.421Z,9.05
2019-02-08T18:53:37.832Z,8.60
2019-02-08T18:56:08.056Z,8.65
2019-02-08T18:58:39.350Z,7.95
2019-02-08T19:01:09.593Z,9.05
2019-02-08T19:03:42.841Z,8.55
2019-02-08T19:06:13.193Z,8.48
2019-02-08T19:08:43.434Z,9.00
2019-02-08T19:11:13.700Z,9.18
2019-02-08T19:13:44.088Z,8.95
2019-02-08T19:16:15.479Z,9.05
2019-02-08T19:18:46.855Z,8.68
2019-02-08T19:21:17.300Z,8.85
2019-02-08T19:23:47.669Z,9.03
2019-02-08T19:26:17.967Z,8.63
2019-02-08T19:28:48.306Z,8.95
2019-02-08T19:31:18.720Z,8.78
2019-02-08T19:33:49.728Z,8.70
2019-02-08T19:36:20.052Z,9.10
2019-02-08T19:38:50.378Z,8.80
2019-02-08T19:41:20.626Z,8.58
2019-02-08T19:43:51.101Z,8.33
2019-02-08T19:46:21.477Z,8.93
2019-02-08T19:48:51.819Z,8.45
2019-02-08T19:51:22.107Z,8.63
2019-02-08T19:53:52.298Z,9.00
2019-02-08T19:56:22.655Z,8.45
2019-02-08T19:58:53.250Z,8.75
2019-02-08T20:01:23.520Z,8.68
2019-02-08T20:03:54.059Z,8.45
2019-02-08T20:06:24.287Z,8.20
2019-02-08T20:08:54.771Z,9.03
2019-02-08T20:11:25.089Z,7.42
2019-02-08T20:13:55.500Z,8.88
2019-02-08T20:16:25.887Z,8.55
2019-02-08T20:18:56.236Z,8.48
2019-02-08T20:21:26.608Z,8.43
2019-02-08T20:23:56.966Z,8.63
2019-02-08T20:26:28.562Z,8.63
2019-02-08T20:29:01.882Z,7.80
2019-02-08T20:31:33.904Z,8.40
2019-02-08T20:34:08.374Z,8.13
2019-02-08T20:36:38.678Z,8.48
2019-02-08T20:39:09.722Z,8.15
2019-02-08T20:41:40.091Z,8.25
2019-02-08T20:44:10.418Z,7.95
2019-02-08T20:46:40.729Z,8.40
2019-02-08T20:49:11.146Z,8.23
2019-02-08T20:51:41.375Z,8.20
2019-02-08T20:54:11.755Z,8.43
2019-02-08T20:56:42.034Z,8.30
2019-02-08T20:59:12.350Z,9.48
2019-02-08T21:01:42.932Z,8.00
2019-02-08T21:04:13.318Z,8.33
2019-02-08T21:06:43.603Z,8.13
2019-02-08T21:09:14.425Z,7.62
2019-02-08T21:11:44.795Z,8.38
2019-02-08T21:14:15.152Z,8.03
2019-02-08T21:16:45.642Z,8.63
2019-02-08T21:19:15.999Z,8.13
2019-02-08T21:21:46.317Z,7.70
2019-02-08T21:24:16.684Z,8.48
2019-02-08T21:26:48.063Z,7.85
2019-02-08T21:29:18.443Z,8.55
2019-02-08T21:31:49.642Z,8.38
2019-02-08T21:34:20.025Z,7.90
2019-02-08T21:36:50.244Z,7.90
2019-02-08T21:39:20.513Z,7.62
2019-02-08T21:41:50.843Z,8.08
2019-02-08T21:44:21.147Z,8.65
2019-02-08T21:46:51.443Z,8.48
2019-02-08T21:49:21.733Z,7.75
2019-02-08T21:51:53.061Z,8.30
2019-02-08T21:54:23.283Z,8.15
2019-02-08T21:56:53.598Z,8.15
2019-02-08T21:59:23.920Z,8.45
2019-02-08T22:01:54.208Z,8.88
2019-02-08T22:04:24.503Z,7.78
2019-02-08T22:06:54.815Z,8.35
2019-02-08T22:09:25.148Z,8.05
2019-02-08T22:11:55.386Z,8.75
2019-02-08T22:14:25.688Z,8.13
2019-02-08T22:16:56.132Z,8.75
2019-02-08T22:19:26.420Z,8.18
2019-02-08T22:21:56.767Z,8.73
2019-02-08T22:24:27.208Z,8.48
2019-02-08T22:26:57.505Z,9.08
2019-02-08T22:29:27.772Z,8.78
2019-02-08T22:31:58.112Z,8.33
2019-02-08T22:34:28.338Z,8.10
2019-02-08T22:36:58.667Z,8.30
2019-02-08T22:39:28.971Z,8.50
2019-02-08T22:41:59.347Z,8.33
2019-02-08T22:44:29.669Z,8.50
2019-02-08T22:47:00.098Z,8.95
2019-02-08T22:49:30.436Z,8.20
2019-02-08T22:52:00.682Z,8.43
2019-02-08T22:54:31.060Z,8.88
2019-02-08T22:57:01.453Z,8.75
2019-02-08T22:59:32.614Z,8.23
2019-02-08T23:02:02.988Z,9.18
2019-02-08T23:04:33.374Z,8.40
2019-02-08T23:07:04.210Z,8.15
2019-02-08T23:09:34.494Z,8.68
2019-02-08T23:12:06.271Z,8.35
2019-02-08T23:14:36.828Z,8.30
2019-02-08T23:17:07.147Z,8.63
2019-02-08T23:19:37.417Z,8.33
2019-02-08T23:22:07.701Z,8.40
2019-02-08T23:24:39.529Z,8.38
2019-02-08T23:27:10.938Z,8.00
2019-02-08T23:29:41.270Z,9.15
2019-02-08T23:32:11.598Z,8.88
2019-02-08T23:34:41.981Z,8.93
2019-02-08T23:37:12.292Z,8.60
2019-02-08T23:39:42.631Z,8.25
2019-02-08T23:42:14.794Z,8.75
2019-02-08T23:44:45.080Z,9.03
2019-02-08T23:47:15.319Z,8.35
2019-02-08T23:49:46.647Z,9.30
2019-02-08T23:52:17.120Z,8.63
2019-02-08T23:54:47.426Z,8.65
2019-02-08T23:57:17.790Z,9.33
2019-02-08T23:59:48.041Z,8.48
